Time;durP1;ratioP1;P1;durP2;ratioP2;P2;SDS_P1;SDS_P2;PMS_P1;PMS_P2;Temp;Humidity;BMP_temperature;BMP_pressure;BME280_temperature;BME280_humidity;BME280_pressure;Samples;Min_cycle;Max_cycle;Signal;HPM_P1;HPM_P2
2023/06/12 00:02:06;;;;;;;6.53;5.93;;;;;;;;;;5003172;28;20458;-48
2023/06/12 00:04:33;;;;;;;6.50;5.87;;;;;;;;;;4990512;28;20458;-49
2023/06/12 00:06:59;;;;;;;6.40;5.50;;;;;;;;;;5000391;28;20407;-49
2023/06/12 00:09:25;;;;;;;6.40;5.90;;;;;;;;;;5002823;28;20414;-49
2023/06/12 00:11:51;;;;;;;6.07;5.57;;;;;;;;;;5002148;28;20414;-48
2023/06/12 00:14:17;;;;;;;5.80;5.20;;;;;;;;;;5000020;28;20605;-48
2023/06/12 00:16:43;;;;;;;5.80;5.30;;;;;;;;;;4999599;28;20417;-50
2023/06/12 00:19:09;;;;;;;6.30;5.70;;;;;;;;;;5001919;28;20777;-48
2023/06/12 00:21:36;;;;;;;10.37;5.70;;;;;;;;;;5007929;28;20458;-50
2023/06/12 00:24:08;;;;;;;5.70;5.20;;;;;;;;;;5000338;28;20806;-49
2023/06/12 00:26:34;;;;;;;7.80;5.07;;;;;;;;;;5000192;28;20453;-48
2023/06/12 00:29:00;;;;;;;7.97;5.20;;;;;;;;;;5005840;28;20422;-48
2023/06/12 00:31:26;;;;;;;5.57;5.07;;;;;;;;;;5002375;28;20426;-48
2023/06/12 00:33:52;;;;;;;6.23;5.70;;;;;;;;;;4997840;28;20448;-49
2023/06/12 00:36:18;;;;;;;5.77;5.20;;;;;;;;;;4999166;28;20461;-49
2023/06/12 00:38:44;;;;;;;6.10;5.50;;;;;;;;;;5000854;28;20458;-48
2023/06/12 00:41:10;;;;;;;6.40;5.90;;;;;;;;;;5003202;28;20548;-48
2023/06/12 00:43:36;;;;;;;6.10;5.60;;;;;;;;;;5000792;28;20520;-48
2023/06/12 00:46:02;;;;;;;6.30;5.70;;;;;;;;;;5001633;28;20969;-49
2023/06/12 00:48:28;;;;;;;7.07;6.43;;;;;;;;;;5003564;28;20412;-49
2023/06/12 00:50:56;;;;;;;7.67;5.97;;;;;;;;;;4995993;28;20463;-49
2023/06/12 00:53:22;;;;;;;6.83;6.10;;;;;;;;;;5003443;28;20511;-48
2023/06/12 00:55:48;;;;;;;6.07;5.47;;;;;;;;;;5006324;28;20959;-49
2023/06/12 00:58:14;;;;;;;5.90;5.40;;;;;;;;;;5006686;28;20499;-49
2023/06/12 01:00:40;;;;;;;6.87;6.27;;;;;;;;;;5003286;28;20931;-49
2023/06/12 01:03:08;;;;;;;5.97;5.43;;;;;;;;;;5005584;28;20445;-50
2023/06/12 01:05:36;;;;;;;6.97;6.27;;;;;;;;;;5003083;28;20415;-48
2023/06/12 01:08:02;;;;;;;6.93;6.13;;;;;;;;;;5003821;28;20402;-50
2023/06/12 01:10:36;;;;;;;6.30;5.70;;;;;;;;;;5007600;28;20904;-49
2023/06/12 01:13:03;;;;;;;6.23;5.60;;;;;;;;;;5003113;28;20887;-49
2023/06/12 01:15:29;;;;;;;6.00;5.03;;;;;;;;;;5003496;28;20426;-48
2023/06/12 01:17:58;;;;;;;6.20;5.60;;;;;;;;;;5007248;28;20423;-49
2023/06/12 01:20:24;;;;;;;6.53;5.90;;;;;;;;;;5003254;28;20409;-49
2023/06/12 01:22:53;;;;;;;6.83;6.30;;;;;;;;;;5004618;28;20999;-48
2023/06/12 01:25:38;;;;;;;7.40;6.13;;;;;;;;;;5006948;28;20488;-50
2023/06/12 01:28:29;;;;;;;6.77;6.17;;;;;;;;;;5002561;28;20917;-49
2023/06/12 01:31:01;;;;;;;6.93;5.77;;;;;;;;;;5004259;28;20419;-49
2023/06/12 01:33:30;;;;;;;5.60;5.10;;;;;;;;;;5002554;28;20477;-50
2023/06/12 01:35:58;;;;;;;5.53;5.10;;;;;;;;;;5004235;28;20408;-49
2023/06/12 01:38:25;;;;;;;7.67;6.03;;;;;;;;;;5007068;28;20513;-48
2023/06/12 01:40:51;;;;;;;6.27;5.40;;;;;;;;;;5002274;28;20456;-48
2023/06/12 01:43:17;;;;;;;7.10;6.40;;;;;;;;;;5003876;28;20404;-49
2023/06/12 01:45:44;;;;;;;6.60;5.90;;;;;;;;;;4995475;28;20428;-50
2023/06/12 01:48:10;;;;;;;6.30;5.53;;;;;;;;;;5003140;28;20391;-49
2023/06/12 01:50:36;;;;;;;8.90;5.60;;;;;;;;;;5002677;28;20499;-50
2023/06/12 01:53:02;;;;;;;6.87;6.27;;;;;;;;;;5008782;28;20420;-49
2023/06/12 01:55:29;;;;;;;6.43;5.73;;;;;;;;;;5005559;28;20415;-50
2023/06/12 01:57:55;;;;;;;7.80;7.00;;;;;;;;;;5000704;28;20425;-49
2023/06/12 02:00:21;;;;;;;5.73;5.03;;;;;;;;;;5001263;28;20420;-48
2023/06/12 02:02:47;;;;;;;6.20;5.60;;;;;;;;;;5003514;28;21383;-50
2023/06/12 02:05:13;;;;;;;6.03;5.43;;;;;;;;;;5005869;28;20429;-50
2023/06/12 02:07:39;;;;;;;7.30;5.90;;;;;;;;;;5003937;28;20417;-50
2023/06/12 02:10:06;;;;;;;7.10;6.20;;;;;;;;;;4998085;28;20418;-49
2023/06/12 02:12:32;;;;;;;7.20;6.50;;;;;;;;;;5004265;28;20405;-49
2023/06/12 02:14:59;;;;;;;8.20;6.73;;;;;;;;;;4996791;28;20871;-49
2023/06/12 02:17:25;;;;;;;7.37;6.43;;;;;;;;;;5005864;28;20412;-50
2023/06/12 02:19:51;;;;;;;6.70;6.10;;;;;;;;;;5003387;28;20550;-50
2023/06/12 02:22:17;;;;;;;9.70;6.03;;;;;;;;;;5003932;28;20457;-50
2023/06/12 02:24:43;;;;;;;6.63;6.03;;;;;;;;;;5002459;28;20948;-49
2023/06/12 02:27:10;;;;;;;9.83;6.20;;;;;;;;;;5004432;28;20415;-50
2023/06/12 02:29:36;;;;;;;8.00;6.00;;;;;;;;;;5002601;28;20394;-50
2023/06/12 02:32:01;;;;;;;6.93;6.20;;;;;;;;;;5002379;28;20819;-49
2023/06/12 02:34:27;;;;;;;6.33;5.73;;;;;;;;;;5006450;28;20447;-48
2023/06/12 02:36:53;;;;;;;7.20;6.00;;;;;;;;;;5001664;28;20455;-48
2023/06/12 02:39:19;;;;;;;7.43;6.73;;;;;;;;;;5002564;28;20390;-50
2023/06/12 02:41:46;;;;;;;7.53;6.70;;;;;;;;;;5002765;28;20514;-50
2023/06/12 02:44:12;;;;;;;6.93;5.73;;;;;;;;;;5001904;28;20442;-48
2023/06/12 02:46:51;;;;;;;6.90;6.20;;;;;;;;;;5001768;28;20510;-49
2023/06/12 02:49:17;;;;;;;6.40;5.90;;;;;;;;;;4997115;28;20510;-49
2023/06/12 02:51:43;;;;;;;7.20;6.50;;;;;;;;;;4998681;28;20886;-50
2023/06/12 02:54:09;;;;;;;7.93;6.23;;;;;;;;;;5004343;28;20425;-49
2023/06/12 02:56:35;;;;;;;6.93;6.33;;;;;;;;;;4998679;28;20420;-50
2023/06/12 02:59:02;;;;;;;6.40;5.80;;;;;;;;;;5012299;28;20434;-49
2023/06/12 03:01:29;;;;;;;6.97;6.33;;;;;;;;;;5004355;28;20481;-49
2023/06/12 03:03:56;;;;;;;7.57;6.53;;;;;;;;;;5003691;28;20429;-50
2023/06/12 03:06:26;;;;;;;9.40;7.40;;;;;;;;;;5003613;28;20414;-49
2023/06/12 03:08:52;;;;;;;6.90;6.17;;;;;;;;;;5004455;28;20414;-49
2023/06/12 03:11:20;;;;;;;6.93;6.23;;;;;;;;;;4999643;28;20493;-50
2023/06/12 03:13:46;;;;;;;13.93;6.07;;;;;;;;;;5003745;28;20470;-50
2023/06/12 03:16:12;;;;;;;15.70;7.00;;;;;;;;;;5003835;28;20991;-49
2023/06/12 03:18:37;;;;;;;7.63;6.83;;;;;;;;;;5001007;28;20443;-49
2023/06/12 03:21:03;;;;;;;7.70;6.80;;;;;;;;;;5003840;28;20872;-50
2023/06/12 03:23:29;;;;;;;7.93;7.23;;;;;;;;;;4999117;28;20834;-49
2023/06/12 03:25:55;;;;;;;9.63;6.40;;;;;;;;;;5001173;28;20408;-48
2023/06/12 03:28:21;;;;;;;8.30;6.67;;;;;;;;;;5001084;28;20792;-49
2023/06/12 03:30:47;;;;;;;7.43;6.73;;;;;;;;;;5007141;28;20806;-49
2023/06/12 03:33:14;;;;;;;17.63;7.23;;;;;;;;;;5002056;28;20397;-50
2023/06/12 03:35:40;;;;;;;9.43;6.97;;;;;;;;;;4999229;28;20511;-49
2023/06/12 03:38:06;;;;;;;11.97;7.37;;;;;;;;;;5002162;28;20831;-49
2023/06/12 03:40:32;;;;;;;7.17;6.57;;;;;;;;;;5000732;28;20412;-49
2023/06/12 03:42:58;;;;;;;12.00;6.73;;;;;;;;;;5003346;28;20449;-50
2023/06/12 03:45:24;;;;;;;10.10;6.70;;;;;;;;;;5004301;28;20406;-48
2023/06/12 03:47:50;;;;;;;10.43;7.10;;;;;;;;;;5005623;28;21063;-49
2023/06/12 03:50:17;;;;;;;7.10;6.00;;;;;;;;;;5000692;28;20384;-50
2023/06/12 03:52:43;;;;;;;7.30;6.60;;;;;;;;;;5002008;28;20437;-49
2023/06/12 03:55:09;;;;;;;7.50;6.60;;;;;;;;;;5010621;28;20450;-49
2023/06/12 03:57:36;;;;;;;9.60;6.90;;;;;;;;;;5002958;28;20493;-49
2023/06/12 04:00:02;;;;;;;7.63;6.50;;;;;;;;;;5003620;28;20888;-50
2023/06/12 04:02:28;;;;;;;7.60;6.10;;;;;;;;;;5002045;28;20450;-49
2023/06/12 04:04:54;;;;;;;7.50;6.23;;;;;;;;;;5003504;28;20947;-48
2023/06/12 04:07:21;;;;;;;7.57;6.43;;;;;;;;;;4999528;28;20417;-49
2023/06/12 04:09:47;;;;;;;8.10;6.30;;;;;;;;;;5002589;28;20428;-49
2023/06/12 04:12:12;;;;;;;7.70;7.00;;;;;;;;;;5003401;28;20431;-49
2023/06/12 04:14:38;;;;;;;8.27;6.63;;;;;;;;;;5000595;28;20414;-49
2023/06/12 04:17:05;;;;;;;7.93;6.57;;;;;;;;;;5000387;28;20416;-49
2023/06/12 04:19:31;;;;;;;7.37;6.67;;;;;;;;;;5000244;28;20410;-49
2023/06/12 04:22:00;;;;;;;9.30;6.27;;;;;;;;;;4996989;28;21042;-49
2023/06/12 04:24:30;;;;;;;7.33;6.53;;;;;;;;;;4999591;28;20958;-48
2023/06/12 04:27:00;;;;;;;8.40;6.90;;;;;;;;;;5000528;28;20423;-50
2023/06/12 04:29:27;;;;;;;7.70;7.00;;;;;;;;;;5004402;28;20468;-49
2023/06/12 04:31:54;;;;;;;13.57;6.93;;;;;;;;;;5002825;28;20424;-50
2023/06/12 04:34:20;;;;;;;11.20;6.60;;;;;;;;;;5010004;28;20523;-50
2023/06/12 04:36:47;;;;;;;11.20;7.40;;;;;;;;;;5004186;28;20455;-48
2023/06/12 04:39:13;;;;;;;7.40;6.70;;;;;;;;;;5004120;28;20382;-49
2023/06/12 04:41:40;;;;;;;10.00;6.43;;;;;;;;;;5004104;28;21028;-50
2023/06/12 04:44:06;;;;;;;7.67;6.97;;;;;;;;;;5008875;28;20932;-49
2023/06/12 04:46:33;;;;;;;10.87;6.90;;;;;;;;;;5006487;28;20848;-49
2023/06/12 04:48:59;;;;;;;9.47;6.70;;;;;;;;;;5000950;28;20390;-48
2023/06/12 04:51:26;;;;;;;7.77;7.03;;;;;;;;;;4999998;28;20472;-49
2023/06/12 04:53:53;;;;;;;7.50;6.80;;;;;;;;;;5005568;28;20435;-49
2023/06/12 04:56:22;;;;;;;8.43;7.63;;;;;;;;;;5006835;28;20413;-50
2023/06/12 04:58:49;;;;;;;7.40;6.70;;;;;;;;;;5005015;28;20415;-50
2023/06/12 05:01:19;;;;;;;8.40;6.80;;;;;;;;;;5005577;28;20467;-50
2023/06/12 05:03:45;;;;;;;7.70;6.77;;;;;;;;;;5005377;28;20957;-50
2023/06/12 05:06:11;;;;;;;13.93;7.30;;;;;;;;;;5000032;28;20415;-50
2023/06/12 05:08:37;;;;;;;9.37;6.90;;;;;;;;;;5007045;28;20419;-49
2023/06/12 05:11:03;;;;;;;9.17;6.70;;;;;;;;;;5003797;28;20412;-49
2023/06/12 05:13:29;;;;;;;11.00;7.30;;;;;;;;;;5003590;28;20435;-49
2023/06/12 05:15:55;;;;;;;7.47;6.63;;;;;;;;;;5005232;28;20405;-49
2023/06/12 05:18:21;;;;;;;8.90;7.30;;;;;;;;;;5003500;28;20422;-49
2023/06/12 05:20:48;;;;;;;10.67;7.03;;;;;;;;;;5002463;28;20387;-49
2023/06/12 05:23:14;;;;;;;11.40;6.93;;;;;;;;;;5006734;28;20471;-49
2023/06/12 05:25:40;;;;;;;7.67;6.77;;;;;;;;;;5006550;28;20419;-49
2023/06/12 05:28:06;;;;;;;8.03;7.23;;;;;;;;;;5002344;28;20411;-49
2023/06/12 05:30:32;;;;;;;7.80;7.00;;;;;;;;;;5001203;28;20505;-50
2023/06/12 05:32:59;;;;;;;8.37;7.50;;;;;;;;;;4999330;28;20473;-50
2023/06/12 05:35:25;;;;;;;8.23;7.43;;;;;;;;;;5003152;28;20435;-49
2023/06/12 05:37:51;;;;;;;10.40;7.40;;;;;;;;;;5002800;28;20442;-49
2023/06/12 05:40:17;;;;;;;13.40;7.70;;;;;;;;;;5008547;28;20779;-50
2023/06/12 05:42:43;;;;;;;8.70;7.90;;;;;;;;;;4998121;28;20826;-50
2023/06/12 05:45:09;;;;;;;7.53;6.70;;;;;;;;;;5000742;28;20444;-49
2023/06/12 05:47:35;;;;;;;8.50;6.77;;;;;;;;;;5000629;28;20426;-49
2023/06/12 05:50:01;;;;;;;11.53;8.20;;;;;;;;;;5005817;28;20413;-49
2023/06/12 05:52:27;;;;;;;9.40;7.27;;;;;;;;;;5002887;28;20485;-48
2023/06/12 05:54:53;;;;;;;8.37;6.70;;;;;;;;;;5004635;28;20439;-49
2023/06/12 05:57:20;;;;;;;15.17;7.40;;;;;;;;;;5004362;28;20472;-49
2023/06/12 05:59:47;;;;;;;9.20;7.30;;;;;;;;;;5003729;28;20453;-50
2023/06/12 06:02:14;;;;;;;8.47;7.20;;;;;;;;;;5005872;28;20460;-49
2023/06/12 06:04:40;;;;;;;7.87;6.83;;;;;;;;;;5005648;28;20444;-50
2023/06/12 06:07:07;;;;;;;9.63;7.30;;;;;;;;;;5003319;28;20409;-50
2023/06/12 06:09:33;;;;;;;6.80;6.10;;;;;;;;;;5001988;28;20925;-49
2023/06/12 06:11:59;;;;;;;6.90;6.20;;;;;;;;;;5004423;28;20424;-50
2023/06/12 06:14:25;;;;;;;8.40;7.37;;;;;;;;;;5002430;28;20430;-49
2023/06/12 06:16:51;;;;;;;8.63;7.07;;;;;;;;;;5002575;28;20514;-49
2023/06/12 06:19:17;;;;;;;9.83;7.60;;;;;;;;;;5002128;28;20483;-50
2023/06/12 06:21:43;;;;;;;12.87;7.53;;;;;;;;;;5006360;28;20467;-50
2023/06/12 06:24:09;;;;;;;11.00;6.80;;;;;;;;;;5000949;28;20461;-50
2023/06/12 06:26:35;;;;;;;11.37;6.70;;;;;;;;;;4999355;28;20441;-49
2023/06/12 06:29:01;;;;;;;7.40;6.70;;;;;;;;;;5002526;28;20405;-49
2023/06/12 06:31:27;;;;;;;6.67;5.77;;;;;;;;;;5001980;28;20776;-50
2023/06/12 06:33:53;;;;;;;6.83;6.10;;;;;;;;;;5009931;28;20793;-50
2023/06/12 06:36:19;;;;;;;10.60;6.97;;;;;;;;;;5001926;28;20420;-49
2023/06/12 06:38:45;;;;;;;15.93;7.00;;;;;;;;;;5005586;28;20530;-49
2023/06/12 06:41:11;;;;;;;8.33;6.80;;;;;;;;;;4999974;28;20509;-50
2023/06/12 06:43:37;;;;;;;8.73;7.27;;;;;;;;;;4997825;28;20447;-51
2023/06/12 06:46:03;;;;;;;8.27;6.60;;;;;;;;;;5004850;28;20497;-50
2023/06/12 06:48:29;;;;;;;11.77;7.57;;;;;;;;;;5003769;28;20413;-50
2023/06/12 06:50:57;;;;;;;10.30;6.93;;;;;;;;;;5003829;28;20942;-56
2023/06/12 06:53:23;;;;;;;6.87;6.17;;;;;;;;;;5001956;28;20489;-49
2023/06/12 06:55:48;;;;;;;11.03;6.37;;;;;;;;;;5003209;28;20426;-50
2023/06/12 06:58:15;;;;;;;10.30;5.50;;;;;;;;;;4998873;28;20421;-50
2023/06/12 07:00:41;;;;;;;6.43;5.90;;;;;;;;;;5004405;28;20415;-50
2023/06/12 07:03:08;;;;;;;6.67;6.07;;;;;;;;;;5002307;28;20467;-51
2023/06/12 07:05:34;;;;;;;13.53;6.93;;;;;;;;;;5001379;28;20431;-49
2023/06/12 07:08:00;;;;;;;16.60;6.40;;;;;;;;;;5003587;28;20415;-50
2023/06/12 07:10:26;;;;;;;6.60;6.00;;;;;;;;;;5000010;28;20409;-50
2023/06/12 07:12:56;;;;;;;6.90;6.20;;;;;;;;;;5001798;28;20426;-50
2023/06/12 07:15:24;;;;;;;7.27;6.20;;;;;;;;;;5001069;28;20497;-50
2023/06/12 07:17:49;;;;;;;6.30;5.80;;;;;;;;;;5006878;28;21047;-50
2023/06/12 07:20:15;;;;;;;6.57;5.97;;;;;;;;;;5001762;28;20480;-50
2023/06/12 07:22:41;;;;;;;6.70;5.83;;;;;;;;;;4997670;28;20464;-50
2023/06/12 07:25:08;;;;;;;6.97;6.37;;;;;;;;;;5004859;28;20806;-50
2023/06/12 07:27:34;;;;;;;10.50;6.83;;;;;;;;;;5001069;28;20417;-50
2023/06/12 07:30:00;;;;;;;6.40;5.80;;;;;;;;;;5003459;28;20425;-50
2023/06/12 07:32:33;;;;;;;6.50;5.90;;;;;;;;;;5006019;28;20423;-49
2023/06/12 07:34:59;;;;;;;9.30;6.73;;;;;;;;;;5004439;28;20822;-50
2023/06/12 07:37:25;;;;;;;8.83;6.77;;;;;;;;;;5001641;28;20465;-50
2023/06/12 07:39:51;;;;;;;6.90;6.30;;;;;;;;;;4996565;28;20442;-51
2023/06/12 07:42:17;;;;;;;6.50;6.00;;;;;;;;;;5003937;28;20486;-50
2023/06/12 07:44:43;;;;;;;6.77;6.10;;;;;;;;;;5001359;28;20458;-50
2023/06/12 07:47:09;;;;;;;6.63;5.37;;;;;;;;;;5004005;28;20405;-50
2023/06/12 07:49:35;;;;;;;6.87;6.13;;;;;;;;;;5000615;28;20453;-50
2023/06/12 07:52:01;;;;;;;7.70;6.43;;;;;;;;;;5001947;28;21268;-50
2023/06/12 07:54:27;;;;;;;6.70;6.10;;;;;;;;;;4999695;28;20441;-50
2023/06/12 07:56:53;;;;;;;6.40;5.83;;;;;;;;;;5001264;28;20438;-50
2023/06/12 07:59:20;;;;;;;7.40;5.80;;;;;;;;;;4985306;28;20482;-50
2023/06/12 08:01:46;;;;;;;8.57;5.97;;;;;;;;;;4998514;28;20469;-51
2023/06/12 08:04:12;;;;;;;6.10;5.60;;;;;;;;;;5001512;28;20430;-50
2023/06/12 08:06:39;;;;;;;6.50;5.90;;;;;;;;;;5000307;28;20403;-50
2023/06/12 08:09:06;;;;;;;6.70;5.70;;;;;;;;;;4999554;28;20420;-50
2023/06/12 08:11:32;;;;;;;6.27;5.63;;;;;;;;;;5000708;28;20971;-50
2023/06/12 08:13:58;;;;;;;5.87;5.37;;;;;;;;;;4992106;28;20591;-52
2023/06/12 08:16:24;;;;;;;6.17;5.67;;;;;;;;;;5002126;28;20773;-49
2023/06/12 08:18:50;;;;;;;10.40;6.10;;;;;;;;;;5000156;28;20423;-48
2023/06/12 08:21:16;;;;;;;7.63;6.10;;;;;;;;;;5005237;28;20424;-47
2023/06/12 08:23:42;;;;;;;6.50;5.90;;;;;;;;;;4998783;28;20820;-48
2023/06/12 08:26:08;;;;;;;7.63;6.00;;;;;;;;;;4996420;28;20415;-48
2023/06/12 08:28:36;;;;;;;6.77;5.63;;;;;;;;;;5000133;28;20925;-48
2023/06/12 08:31:03;;;;;;;6.50;5.90;;;;;;;;;;5003096;28;20778;-50
2023/06/12 08:33:29;;;;;;;6.50;5.80;;;;;;;;;;5003389;28;20430;-48
2023/06/12 08:35:55;;;;;;;5.80;5.30;;;;;;;;;;5001170;28;20410;-51
2023/06/12 08:38:22;;;;;;;5.90;5.37;;;;;;;;;;4998375;28;20411;-51
2023/06/12 08:40:48;;;;;;;6.03;5.47;;;;;;;;;;5001413;28;20412;-52
2023/06/12 08:43:14;;;;;;;5.70;5.20;;;;;;;;;;5006640;28;20519;-50
2023/06/12 08:45:46;;;;;;;6.57;5.27;;;;;;;;;;5000056;28;20412;-51
2023/06/12 08:48:13;;;;;;;7.20;5.70;;;;;;;;;;4996714;28;20505;-52
2023/06/12 08:50:39;;;;;;;8.80;5.37;;;;;;;;;;5003106;28;20426;-50
2023/06/12 08:53:05;;;;;;;6.33;5.83;;;;;;;;;;4993441;28;20982;-50
2023/06/12 08:55:32;;;;;;;6.03;5.40;;;;;;;;;;5005736;28;20530;-51
2023/06/12 08:57:59;;;;;;;6.50;5.90;;;;;;;;;;5006828;28;20416;-51
2023/06/12 09:00:25;;;;;;;6.13;5.50;;;;;;;;;;4999252;28;20469;-51
2023/06/12 09:02:52;;;;;;;5.90;5.40;;;;;;;;;;5000078;28;20456;-50
2023/06/12 09:05:24;;;;;;;5.73;5.33;;;;;;;;;;4999376;28;20584;-50
2023/06/12 09:07:50;;;;;;;7.00;5.80;;;;;;;;;;5001207;28;20419;-49
2023/06/12 09:10:16;;;;;;;6.47;5.80;;;;;;;;;;5003563;28;20846;-51
2023/06/12 09:12:44;;;;;;;6.03;5.43;;;;;;;;;;5003790;28;20481;-50
2023/06/12 09:15:16;;;;;;;6.03;5.47;;;;;;;;;;4998742;28;20489;-49
2023/06/12 09:17:42;;;;;;;6.07;5.50;;;;;;;;;;4994095;28;20502;-51
2023/06/12 09:20:15;;;;;;;5.80;5.30;;;;;;;;;;5001041;28;20533;-51
2023/06/12 09:22:42;;;;;;;6.47;5.87;;;;;;;;;;4999112;28;20966;-50
2023/06/12 09:25:08;;;;;;;6.23;5.40;;;;;;;;;;4997174;28;20477;-50
2023/06/12 09:27:44;;;;;;;6.87;6.13;;;;;;;;;;5003197;28;20486;-51
2023/06/12 09:30:11;;;;;;;6.00;5.60;;;;;;;;;;4998248;28;20514;-51
2023/06/12 09:32:37;;;;;;;5.97;5.50;;;;;;;;;;4999246;28;20426;-51
2023/06/12 09:35:04;;;;;;;9.93;5.60;;;;;;;;;;5002293;28;20453;-49
2023/06/12 09:37:30;;;;;;;5.73;5.23;;;;;;;;;;4994993;28;20415;-50
2023/06/12 09:40:12;;;;;;;6.00;5.50;;;;;;;;;;4993298;28;20419;-50
2023/06/12 09:42:38;;;;;;;6.30;5.73;;;;;;;;;;4980766;28;20466;-49
2023/06/12 09:45:15;;;;;;;5.97;5.37;;;;;;;;;;4994659;28;20518;-50
2023/06/12 09:47:48;;;;;;;5.93;5.43;;;;;;;;;;4994891;28;20458;-51
2023/06/12 09:50:15;;;;;;;6.10;5.60;;;;;;;;;;4994622;28;20400;-51
2023/06/12 09:52:41;;;;;;;5.30;4.90;;;;;;;;;;4994756;28;20412;-51
2023/06/12 09:55:08;;;;;;;6.13;5.60;;;;;;;;;;4994546;28;20523;-49
2023/06/12 09:57:36;;;;;;;6.13;5.73;;;;;;;;;;4994574;28;20420;-49
2023/06/12 10:00:05;;;;;;;7.70;6.90;;;;;;;;;;4994624;28;20459;-50
2023/06/12 10:02:31;;;;;;;6.70;5.20;;;;;;;;;;4994520;28;20467;-50
2023/06/12 10:05:01;;;;;;;6.40;5.87;;;;;;;;;;4994434;28;20432;-51
2023/06/12 10:07:32;;;;;;;8.50;6.63;;;;;;;;;;4994474;28;20451;-49
2023/06/12 10:09:59;;;;;;;5.90;5.37;;;;;;;;;;4994282;28;20415;-49
2023/06/12 10:12:26;;;;;;;9.53;5.20;;;;;;;;;;4992586;28;20458;-50
2023/06/12 10:14:52;;;;;;;5.87;5.30;;;;;;;;;;4994112;28;20467;-50
2023/06/12 10:17:21;;;;;;;6.13;5.40;;;;;;;;;;4993577;28;20416;-50
2023/06/12 10:19:49;;;;;;;5.73;5.23;;;;;;;;;;4992892;28;20418;-50
2023/06/12 10:22:15;;;;;;;6.20;5.70;;;;;;;;;;4993706;28;20529;-50
2023/06/12 10:24:42;;;;;;;6.33;5.30;;;;;;;;;;4992116;28;20451;-50
2023/06/12 10:27:09;;;;;;;5.90;4.90;;;;;;;;;;4990205;28;20488;-51
2023/06/12 10:29:42;;;;;;;6.23;5.00;;;;;;;;;;4974465;28;20397;-50
2023/06/12 10:32:14;;;;;;;4.90;4.50;;;;;;;;;;4975152;28;21115;-50
2023/06/12 10:34:42;;;;;;;5.20;4.37;;;;;;;;;;4994880;28;20436;-50
2023/06/12 10:37:28;;;;;;;5.20;4.80;;;;;;;;;;4993910;28;20415;-49
2023/06/12 10:40:07;;;;;;;5.47;5.10;;;;;;;;;;4993631;28;20424;-49
2023/06/12 10:42:47;;;;;;;5.23;4.60;;;;;;;;;;4992656;28;20463;-48
2023/06/12 10:45:21;;;;;;;4.93;4.53;;;;;;;;;;4992776;28;20444;-48
2023/06/12 10:48:10;;;;;;;5.00;4.70;;;;;;;;;;4993545;28;20444;-48
2023/06/12 10:50:37;;;;;;;5.80;5.40;;;;;;;;;;4993449;28;20415;-48
2023/06/12 10:53:04;;;;;;;5.57;5.17;;;;;;;;;;4993731;28;20799;-49
2023/06/12 10:55:34;;;;;;;8.53;5.60;;;;;;;;;;4993436;28;20759;-49
2023/06/12 10:58:04;;;;;;;5.90;5.50;;;;;;;;;;4994041;28;20420;-49
2023/06/12 11:00:34;;;;;;;10.17;5.80;;;;;;;;;;4993754;28;20396;-49
2023/06/12 11:03:01;;;;;;;5.80;5.30;;;;;;;;;;4993443;28;20490;-48
2023/06/12 11:05:28;;;;;;;5.63;5.17;;;;;;;;;;4993182;28;20811;-48
2023/06/12 11:08:04;;;;;;;5.47;4.97;;;;;;;;;;4993442;28;20408;-48
2023/06/12 11:10:31;;;;;;;6.10;5.33;;;;;;;;;;4991987;28;20427;-47
2023/06/12 11:12:57;;;;;;;6.43;6.03;;;;;;;;;;4993085;28;20431;-48
2023/06/12 11:15:23;;;;;;;5.40;4.93;;;;;;;;;;4993182;28;20920;-49
2023/06/12 11:17:49;;;;;;;5.93;5.30;;;;;;;;;;4993176;28;20776;-48
2023/06/12 11:20:18;;;;;;;5.93;5.43;;;;;;;;;;4992883;28;20459;-48
2023/06/12 11:22:44;;;;;;;5.57;5.17;;;;;;;;;;4993493;28;20455;-48
2023/06/12 11:25:10;;;;;;;6.37;5.80;;;;;;;;;;4992818;28;20827;-48
2023/06/12 11:27:37;;;;;;;5.50;5.10;;;;;;;;;;4993362;28;20411;-49
2023/06/12 11:30:13;;;;;;;5.07;4.70;;;;;;;;;;4988577;28;20420;-48
2023/06/12 11:32:40;;;;;;;5.90;5.50;;;;;;;;;;4997236;28;20929;-48
2023/06/12 11:35:09;;;;;;;5.87;5.10;;;;;;;;;;5003348;28;20446;-48
2023/06/12 11:37:36;;;;;;;5.03;4.70;;;;;;;;;;5000705;28;20451;-48
2023/06/12 11:40:12;;;;;;;6.67;5.30;;;;;;;;;;4998493;28;20423;-49
2023/06/12 11:42:39;;;;;;;6.03;5.50;;;;;;;;;;5002901;28;20547;-48
2023/06/12 11:45:09;;;;;;;5.43;5.03;;;;;;;;;;4996400;28;20423;-48
2023/06/12 11:47:36;;;;;;;5.47;5.07;;;;;;;;;;5001309;28;20478;-49
2023/06/12 11:50:09;;;;;;;6.27;5.77;;;;;;;;;;5003600;28;20884;-49
2023/06/12 11:52:36;;;;;;;5.27;4.87;;;;;;;;;;5001665;28;20418;-49
2023/06/12 11:55:06;;;;;;;6.20;5.43;;;;;;;;;;5000978;28;20476;-48
2023/06/12 11:57:33;;;;;;;6.03;5.43;;;;;;;;;;5005914;28;20934;-48
2023/06/12 11:59:59;;;;;;;6.47;5.87;;;;;;;;;;4992038;28;20412;-48
2023/06/12 12:02:29;;;;;;;6.03;5.53;;;;;;;;;;4992422;28;20468;-48
2023/06/12 12:04:56;;;;;;;6.23;5.73;;;;;;;;;;4990992;28;20802;-47
2023/06/12 12:07:22;;;;;;;10.53;6.33;;;;;;;;;;4990614;28;20404;-48
2023/06/12 12:09:47;;;;;;;7.50;6.00;;;;;;;;;;4991039;28;20423;-46
2023/06/12 12:12:15;;;;;;;10.20;6.37;;;;;;;;;;4989303;28;20844;-46
2023/06/12 12:14:50;;;;;;;6.37;5.87;;;;;;;;;;4991147;28;20447;-46
2023/06/12 12:17:17;;;;;;;12.90;6.23;;;;;;;;;;4992182;28;20949;-49
2023/06/12 12:19:43;;;;;;;7.23;6.47;;;;;;;;;;4992037;28;20423;-47
2023/06/12 12:22:10;;;;;;;10.77;6.73;;;;;;;;;;4992208;28;20809;-49
2023/06/12 12:24:36;;;;;;;7.33;6.27;;;;;;;;;;4992071;28;20965;-48
2023/06/12 12:27:03;;;;;;;16.13;5.60;;;;;;;;;;4992256;28;20411;-45
2023/06/12 12:29:33;;;;;;;8.80;5.87;;;;;;;;;;4992030;28;20412;-46
2023/06/12 12:31:59;;;;;;;9.60;6.20;;;;;;;;;;4991996;28;20416;-46
2023/06/12 12:34:26;;;;;;;10.27;6.20;;;;;;;;;;5004337;28;20934;-45
2023/06/12 12:36:52;;;;;;;6.73;6.23;;;;;;;;;;5001928;28;20799;-49
2023/06/12 12:39:18;;;;;;;6.57;5.70;;;;;;;;;;4991847;28;20408;-45
2023/06/12 12:41:44;;;;;;;7.73;6.93;;;;;;;;;;4990205;28;20464;-46
2023/06/12 12:44:10;;;;;;;7.27;6.57;;;;;;;;;;4991242;28;20470;-46
2023/06/12 12:46:37;;;;;;;6.80;6.20;;;;;;;;;;4992438;28;20400;-46
2023/06/12 12:49:03;;;;;;;7.67;6.83;;;;;;;;;;4991932;28;20505;-46
2023/06/12 12:51:29;;;;;;;10.63;6.77;;;;;;;;;;4979791;28;20901;-46
2023/06/12 12:53:56;;;;;;;6.83;6.23;;;;;;;;;;4988458;28;20440;-45
2023/06/12 12:56:22;;;;;;;9.40;6.97;;;;;;;;;;4982416;28;20435;-48
2023/06/12 12:58:49;;;;;;;6.80;6.20;;;;;;;;;;5001889;28;20420;-51
2023/06/12 13:01:15;;;;;;;7.30;6.70;;;;;;;;;;4995511;28;20529;-46
2023/06/12 13:03:41;;;;;;;6.77;6.23;;;;;;;;;;4995059;28;20512;-48
2023/06/12 13:06:08;;;;;;;8.87;6.83;;;;;;;;;;4995538;28;20219;-46
2023/06/12 13:08:36;;;;;;;6.77;5.83;;;;;;;;;;4995537;28;20427;-46
2023/06/12 13:11:02;;;;;;;14.13;6.90;;;;;;;;;;4995334;28;20912;-46
2023/06/12 13:13:28;;;;;;;6.77;6.13;;;;;;;;;;4994237;28;20455;-47
2023/06/12 13:15:54;;;;;;;8.00;6.90;;;;;;;;;;4994545;28;20439;-47
2023/06/12 13:18:20;;;;;;;7.00;5.63;;;;;;;;;;4995340;28;20503;-46
2023/06/12 13:20:46;;;;;;;7.03;6.27;;;;;;;;;;4995060;28;20879;-47
2023/06/12 13:23:13;;;;;;;5.93;5.50;;;;;;;;;;4995138;28;20466;-47
2023/06/12 13:25:39;;;;;;;6.60;6.00;;;;;;;;;;4995330;28;20420;-47
2023/06/12 13:28:05;;;;;;;8.23;7.00;;;;;;;;;;4994994;28;20431;-47
2023/06/12 13:30:31;;;;;;;6.87;6.23;;;;;;;;;;4995188;28;20543;-46
2023/06/12 13:32:57;;;;;;;8.83;6.30;;;;;;;;;;4995323;28;20904;-49
2023/06/12 13:35:23;;;;;;;7.53;6.90;;;;;;;;;;5007187;28;20470;-50
2023/06/12 13:37:48;;;;;;;9.10;6.10;;;;;;;;;;4995013;28;20424;-46
2023/06/12 13:40:16;;;;;;;8.07;5.90;;;;;;;;;;4995249;28;20416;-48
2023/06/12 13:42:44;;;;;;;5.80;5.40;;;;;;;;;;4993781;28;20514;-47
2023/06/12 13:45:10;;;;;;;6.43;5.83;;;;;;;;;;4993455;28;20510;-48
2023/06/12 13:47:36;;;;;;;6.90;6.03;;;;;;;;;;4994865;28;20427;-50
2023/06/12 13:50:03;;;;;;;12.03;6.23;;;;;;;;;;4994957;28;20474;-46
2023/06/12 13:52:30;;;;;;;6.90;5.70;;;;;;;;;;4994787;28;20415;-45
2023/06/12 13:54:56;;;;;;;6.07;5.67;;;;;;;;;;4994768;28;20892;-46
2023/06/12 13:57:22;;;;;;;9.43;5.07;;;;;;;;;;4994556;28;20511;-45
2023/06/12 13:59:48;;;;;;;7.57;5.60;;;;;;;;;;4994587;28;20622;-47
2023/06/12 14:02:14;;;;;;;7.20;5.77;;;;;;;;;;4994371;28;20608;-47
2023/06/12 14:04:40;;;;;;;6.40;5.90;;;;;;;;;;4994391;28;20448;-47
2023/06/12 14:07:06;;;;;;;6.80;6.20;;;;;;;;;;4994492;28;20424;-47
2023/06/12 14:09:33;;;;;;;6.10;5.60;;;;;;;;;;4994238;28;20416;-47
2023/06/12 14:11:59;;;;;;;6.40;5.87;;;;;;;;;;4994236;28;20424;-45
2023/06/12 14:14:26;;;;;;;6.87;6.07;;;;;;;;;;4992477;28;20447;-46
2023/06/12 14:16:52;;;;;;;7.30;6.40;;;;;;;;;;4993690;28;20526;-45
2023/06/12 14:19:18;;;;;;;6.00;5.60;;;;;;;;;;4994221;28;20490;-46
2023/06/12 14:21:44;;;;;;;6.70;5.40;;;;;;;;;;4994127;28;20444;-46
2023/06/12 14:24:10;;;;;;;6.70;6.00;;;;;;;;;;4994016;28;20470;-46
2023/06/12 14:26:36;;;;;;;5.73;5.27;;;;;;;;;;5001211;28;20438;-46
2023/06/12 14:29:02;;;;;;;6.23;5.73;;;;;;;;;;5005397;28;20427;-52
2023/06/12 14:31:28;;;;;;;5.93;5.43;;;;;;;;;;5005492;28;21056;-46
2023/06/12 14:33:54;;;;;;;7.13;6.43;;;;;;;;;;4997970;28;20522;-46
2023/06/12 14:36:20;;;;;;;6.33;5.73;;;;;;;;;;5002452;28;20493;-46
2023/06/12 14:38:46;;;;;;;6.70;6.03;;;;;;;;;;5001559;28;20404;-48
2023/06/12 14:41:12;;;;;;;6.57;5.97;;;;;;;;;;5001583;28;20867;-48